createdAt,value
2018-07-03T00:00:13.953Z,148921.95
2018-07-03T00:02:44.942Z,148941.88
2018-07-03T00:05:16.233Z,148936.89
2018-07-03T00:07:47.492Z,148954.34
2018-07-03T00:10:19.242Z,148970.58
2018-07-03T00:12:50.252Z,148986.78
2018-07-03T00:15:21.824Z,148979.31
2018-07-03T00:17:52.972Z,148980.55
2018-07-03T00:20:23.939Z,148985.53
2018-07-03T00:22:54.881Z,148984.28
2018-07-03T00:25:26.216Z,148971.83
2018-07-03T00:27:57.125Z,148963.11
2018-07-03T00:30:28.182Z,148965.59
2018-07-03T00:32:59.335Z,148956.83
2018-07-03T00:35:30.643Z,148944.38
2018-07-03T00:38:01.660Z,148844.58
2018-07-03T00:40:32.596Z,148975.56
2018-07-03T00:43:04.047Z,148976.81
2018-07-03T00:45:35.360Z,148984.28
2018-07-03T00:48:06.359Z,148994.25
2018-07-03T00:50:37.129Z,148989.27
2018-07-03T00:53:08.143Z,148971.83
2018-07-03T00:55:39.216Z,148955.59
2018-07-03T00:58:10.152Z,148938.14
2018-07-03T01:00:41.130Z,148931.91
2018-07-03T01:03:12.281Z,148924.44
2018-07-03T01:05:43.323Z,148910.64
2018-07-03T01:08:16.155Z,148901.92
2018-07-03T01:10:47.385Z,148896.94
2018-07-03T01:13:18.713Z,148877.02
2018-07-03T01:15:49.745Z,148885.73
2018-07-03T01:18:20.712Z,148888.22
2018-07-03T01:20:51.723Z,148908.16
2018-07-03T01:23:22.600Z,148916.92
2018-07-03T01:25:53.641Z,148931.91
2018-07-03T01:28:24.570Z,148933.16
2018-07-03T01:30:55.658Z,148936.89
2018-07-03T01:33:27.791Z,148954.34
2018-07-03T01:35:58.744Z,148936.89
2018-07-03T01:38:29.771Z,148933.16
2018-07-03T01:41:01.128Z,148941.88
2018-07-03T01:46:01.583Z,148954.34
2018-07-03T01:48:32.818Z,148951.84
2018-07-03T01:51:03.991Z,148933.16
2018-07-03T01:53:34.828Z,148939.39
2018-07-03T01:56:05.772Z,148941.88
2018-07-03T01:58:36.905Z,148911.89
2018-07-03T02:01:08.235Z,148924.44
2018-07-03T02:03:39.461Z,148919.41
2018-07-03T02:06:10.610Z,148911.89
2018-07-03T02:08:41.863Z,148889.47
2018-07-03T02:11:12.949Z,148862.02
2018-07-03T02:13:44.152Z,148849.56
2018-07-03T02:16:15.210Z,148852.06
2018-07-03T02:18:46.245Z,148853.30
2018-07-03T02:21:17.483Z,148862.02
2018-07-03T02:23:48.511Z,148869.53
2018-07-03T02:26:19.616Z,148883.25
2018-07-03T02:28:50.660Z,148879.50
2018-07-03T02:31:21.728Z,148868.28
2018-07-03T02:33:53.097Z,148854.55
2018-07-03T02:36:24.530Z,148847.06
2018-07-03T02:38:55.760Z,148833.38
2018-07-03T02:41:26.744Z,148834.63
2018-07-03T02:43:57.928Z,148838.36
2018-07-03T02:46:29.891Z,148849.56
2018-07-03T02:49:00.989Z,148885.73
2018-07-03T02:51:32.891Z,148923.19
2018-07-03T02:54:03.984Z,148934.41
2018-07-03T02:56:35.140Z,148978.06
2018-07-03T02:59:05.974Z,149009.25
2018-07-03T03:01:37.335Z,149039.16
2018-07-03T03:04:08.383Z,149070.36
2018-07-03T03:07:42.474Z,149091.55
2018-07-03T03:10:13.487Z,149102.77
2018-07-03T03:12:45.563Z,149117.77
2018-07-03T03:15:16.351Z,149134.02
2018-07-03T03:17:47.453Z,149142.75
2018-07-03T03:20:18.353Z,149159.00
2018-07-03T03:22:49.193Z,149182.69
2018-07-03T03:25:20.270Z,149207.66
2018-07-03T03:27:51.202Z,149266.31
2018-07-03T03:30:22.122Z,149332.50
2018-07-03T03:32:53.106Z,149382.44
2018-07-03T03:35:24.068Z,149434.88
2018-07-03T03:37:55.153Z,149488.61
2018-07-03T03:40:26.872Z,149527.34
2018-07-03T03:42:57.873Z,149556.09
2018-07-03T03:45:28.748Z,149573.56
2018-07-03T03:47:59.987Z,149586.09
2018-07-03T03:50:30.948Z,149604.81
2018-07-03T03:53:01.957Z,149676.09
2018-07-03T03:55:33.195Z,149736.06
2018-07-03T03:58:04.339Z,149763.53
2018-07-03T04:00:35.468Z,149759.78
2018-07-03T04:03:06.763Z,149726.08
2018-07-03T04:05:37.711Z,149733.56
2018-07-03T04:08:08.926Z,149731.08
2018-07-03T04:10:40.039Z,149742.31
2018-07-03T04:13:11.189Z,149764.78
2018-07-03T04:15:42.291Z,149717.30
2018-07-03T04:18:13.540Z,149748.56
2018-07-03T04:20:44.555Z,149881.11
2018-07-03T04:23:15.668Z,150046.20
2018-07-03T04:25:46.644Z,150088.73
2018-07-03T04:28:17.930Z,150036.22
2018-07-03T04:30:49.208Z,150053.75
2018-07-03T04:33:20.449Z,150027.47
2018-07-03T04:35:51.458Z,150024.97
2018-07-03T04:38:22.769Z,150098.78
2018-07-03T04:40:54.964Z,150201.41
2018-07-03T04:43:26.266Z,150236.41
2018-07-03T04:45:57.478Z,150232.66
2018-07-03T04:48:28.791Z,150223.91
2018-07-03T04:50:59.882Z,150156.31
2018-07-03T04:53:31.154Z,150278.97
2018-07-03T04:56:02.328Z,150440.53
2018-07-03T04:58:34.548Z,150707.38
2018-07-03T05:01:06.221Z,150955.66
2018-07-03T05:03:37.173Z,151035.86
2018-07-03T05:06:08.466Z,150802.66
2018-07-03T05:08:40.656Z,150587.09
2018-07-03T05:11:11.507Z,150421.72
2018-07-03T05:13:42.702Z,150337.88
2018-07-03T05:16:13.665Z,150258.97
2018-07-03T05:18:45.033Z,150350.38
2018-07-03T05:21:16.153Z,150519.44
2018-07-03T05:23:47.458Z,150709.88
2018-07-03T05:26:18.511Z,150676.08
2018-07-03T05:28:52.030Z,150625.94
2018-07-03T05:31:23.026Z,150783.81
2018-07-03T05:33:54.336Z,151273.02
2018-07-03T05:36:25.386Z,151300.62
2018-07-03T05:38:56.675Z,151137.48
2018-07-03T05:41:27.696Z,150971.94
2018-07-03T05:43:58.975Z,151053.44
2018-07-03T05:46:30.052Z,151163.84
2018-07-03T05:49:02.217Z,152060.69
2018-07-03T05:51:33.435Z,152799.36
2018-07-03T05:54:04.721Z,152824.56
2018-07-03T05:56:36.466Z,152808.16
2018-07-03T05:59:08.767Z,153191.17
2018-07-03T06:01:40.726Z,153450.95
2018-07-03T06:04:13.421Z,153094.13
2018-07-03T06:06:45.430Z,152809.42
2018-07-03T06:09:16.683Z,152468.22
2018-07-03T06:11:47.843Z,152226.66
2018-07-03T06:14:19.149Z,151908.59
2018-07-03T06:16:54.121Z,151728.84
2018-07-03T06:19:26.734Z,151573.09
2018-07-03T06:21:58.004Z,151571.80
2018-07-03T06:24:29.421Z,151967.64
2018-07-03T06:27:00.851Z,152152.50
2018-07-03T06:29:32.521Z,152051.91
2018-07-03T06:32:04.631Z,151988.98
2018-07-03T06:34:36.086Z,151869.59
2018-07-03T06:37:07.232Z,151727.59
2018-07-03T06:39:38.582Z,151306.91
2018-07-03T06:42:09.738Z,151082.25
2018-07-03T06:44:41.123Z,150948.09
2018-07-03T06:47:12.129Z,150926.75
2018-07-03T06:49:43.278Z,151030.84
2018-07-03T06:52:14.455Z,151306.91
2018-07-03T06:54:45.800Z,150906.72
2018-07-03T06:57:17.033Z,151044.63
2018-07-03T06:59:48.086Z,151082.25
2018-07-03T07:02:19.965Z,150975.69
2018-07-03T07:04:50.981Z,150976.94
2018-07-03T07:07:21.860Z,151015.81
2018-07-03T07:09:53.126Z,150970.67
2018-07-03T07:12:24.130Z,150852.78
2018-07-03T07:14:55.108Z,150817.72
2018-07-03T07:17:26.065Z,151010.81
2018-07-03T07:19:57.056Z,150958.16
2018-07-03T07:22:28.077Z,151143.75
2018-07-03T07:24:59.630Z,151838.16
2018-07-03T07:27:30.676Z,152343.69
2018-07-03T07:30:02.655Z,152741.41
2018-07-03T07:32:33.896Z,153174.81
2018-07-03T07:35:05.044Z,153342.53
2018-07-03T07:37:37.470Z,153752.45
2018-07-03T07:40:08.631Z,153493.83
2018-07-03T07:42:40.468Z,153667.89
2018-07-03T07:45:11.900Z,153767.58
2018-07-03T07:47:43.175Z,153892.53
2018-07-03T07:50:14.440Z,154094.53
2018-07-03T07:52:45.469Z,153965.78
2018-07-03T07:55:16.709Z,153587.17
2018-07-03T07:57:47.840Z,153527.83
2018-07-03T08:00:19.182Z,153371.48
2018-07-03T08:02:50.564Z,152907.67
2018-07-03T08:05:21.682Z,152735.13
2018-07-03T08:07:52.684Z,152546.30
2018-07-03T08:10:23.983Z,152609.20
2018-07-03T08:12:54.984Z,152789.30
2018-07-03T08:15:26.185Z,152490.91
2018-07-03T08:17:57.303Z,152420.42
2018-07-03T08:20:29.266Z,152288.34
2018-07-03T08:23:00.261Z,152072.00
2018-07-03T08:25:31.406Z,151709.97
2018-07-03T08:28:03.368Z,151507.78
2018-07-03T08:30:34.651Z,151545.47
2018-07-03T08:33:06.091Z,151387.28
2018-07-03T08:35:37.337Z,151291.86
2018-07-03T08:38:08.992Z,151014.56
2018-07-03T08:40:40.263Z,150923.00
2018-07-03T08:43:11.390Z,151007.05
2018-07-03T08:45:42.474Z,150975.69
2018-07-03T08:48:13.591Z,150970.67
2018-07-03T08:50:44.570Z,150900.41
2018-07-03T08:53:15.675Z,150788.83
2018-07-03T08:55:47.092Z,150856.53
2018-07-03T08:58:18.252Z,150830.23
2018-07-03T09:00:49.440Z,150900.41
2018-07-03T09:03:20.685Z,150800.14
2018-07-03T09:05:52.687Z,150827.73
2018-07-03T09:08:24.520Z,150865.34
2018-07-03T09:10:55.683Z,150830.23
2018-07-03T09:13:27.763Z,150821.47
2018-07-03T09:15:58.785Z,150839.00
2018-07-03T09:18:29.819Z,150815.22
2018-07-03T09:21:01.215Z,150887.89
2018-07-03T09:23:32.394Z,150862.84
2018-07-03T09:26:03.809Z,150757.48
2018-07-03T09:28:35.147Z,150778.81
2018-07-03T09:31:07.565Z,150792.59
2018-07-03T09:33:38.802Z,150677.34
2018-07-03T09:36:10.018Z,150742.47
2018-07-03T09:38:41.338Z,150743.72
2018-07-03T09:41:12.760Z,150770.05
2018-07-03T09:43:43.850Z,150712.38
2018-07-03T09:46:15.263Z,150714.87
2018-07-03T09:48:46.414Z,150727.44
2018-07-03T09:51:17.544Z,150661.02
2018-07-03T09:53:48.486Z,150614.62
2018-07-03T09:56:19.724Z,150714.87
2018-07-03T09:58:51.221Z,150661.02
2018-07-03T10:01:22.216Z,150615.88
2018-07-03T10:03:53.226Z,150663.52
2018-07-03T10:06:24.418Z,150583.34
2018-07-03T10:08:55.728Z,150605.86
2018-07-03T10:11:26.970Z,150658.52
2018-07-03T10:13:58.357Z,150722.44
2018-07-03T10:16:29.267Z,150703.63
2018-07-03T10:19:00.407Z,150709.88
2018-07-03T10:21:32.349Z,150716.13
2018-07-03T10:24:03.682Z,150724.94
2018-07-03T10:26:34.765Z,150737.45
2018-07-03T10:29:05.874Z,150594.59
2018-07-03T10:31:36.916Z,150625.94
2018-07-03T10:34:08.320Z,150668.53
2018-07-03T10:36:39.377Z,150723.69
2018-07-03T10:39:13.390Z,150759.98
2018-07-03T10:41:44.448Z,150793.84
2018-07-03T10:44:15.828Z,150703.63
2018-07-03T10:46:47.320Z,150676.08
2018-07-03T10:49:18.289Z,150822.72
2018-07-03T10:51:49.287Z,150894.14
2018-07-03T10:54:20.604Z,150983.20
2018-07-03T10:56:51.782Z,151024.59
2018-07-03T10:59:22.773Z,150953.09
2018-07-03T11:01:54.068Z,151013.31
2018-07-03T11:04:25.438Z,151083.52
2018-07-03T11:06:56.672Z,150998.23
2018-07-03T11:09:28.234Z,151083.52
2018-07-03T11:11:59.372Z,151083.52
2018-07-03T11:14:30.462Z,151103.66
2018-07-03T11:17:01.608Z,151241.69
2018-07-03T11:19:32.626Z,151340.80
2018-07-03T11:22:04.297Z,151331.97
2018-07-03T11:24:35.512Z,150895.39
2018-07-03T11:27:06.763Z,150905.41
2018-07-03T11:29:37.821Z,151040.87
2018-07-03T11:32:08.947Z,151070.98
2018-07-03T11:34:40.197Z,151176.37
2018-07-03T11:37:11.351Z,151192.70
2018-07-03T11:39:42.611Z,150920.48
2018-07-03T11:42:13.825Z,151101.16
2018-07-03T11:44:45.039Z,151241.69
2018-07-03T11:47:16.155Z,151255.47
2018-07-03T11:49:47.126Z,151325.70
2018-07-03T11:52:18.468Z,151252.95
2018-07-03T11:54:49.572Z,151314.42
2018-07-03T11:57:20.745Z,151279.28
2018-07-03T11:59:52.000Z,151298.13
2018-07-03T12:02:23.468Z,151271.77
2018-07-03T12:04:54.709Z,151256.72
2018-07-03T12:07:26.262Z,151247.94
2018-07-03T12:09:57.550Z,151352.08
2018-07-03T12:12:28.537Z,151326.95
2018-07-03T12:14:59.421Z,151344.56
2018-07-03T12:17:30.413Z,151407.33
2018-07-03T12:20:01.445Z,151403.58
2018-07-03T12:22:32.908Z,151349.56
2018-07-03T12:25:04.595Z,151271.77
2018-07-03T12:27:36.823Z,151337.03
2018-07-03T12:30:10.428Z,151365.92
2018-07-03T12:32:41.852Z,151333.22
2018-07-03T12:35:13.001Z,151284.30
2018-07-03T12:37:44.151Z,151357.09
2018-07-03T12:40:15.263Z,151398.56
2018-07-03T12:42:46.397Z,151423.63
2018-07-03T12:45:17.647Z,151133.72
2018-07-03T12:47:48.804Z,151186.39
2018-07-03T12:50:19.928Z,151109.92
2018-07-03T12:52:51.160Z,151171.36
2018-07-03T12:55:22.371Z,151160.08
2018-07-03T12:57:53.569Z,151097.39
2018-07-03T13:00:24.858Z,151147.55
2018-07-03T13:02:56.033Z,151083.52
2018-07-03T13:05:27.329Z,151089.81
2018-07-03T13:07:58.534Z,151022.08
2018-07-03T13:10:30.336Z,150978.19
2018-07-03T13:13:01.533Z,151005.80
2018-07-03T13:15:32.623Z,150978.19
2018-07-03T13:18:08.687Z,150933.02
2018-07-03T13:20:39.857Z,150869.09
2018-07-03T13:23:11.390Z,150880.38
2018-07-03T13:25:42.531Z,150742.47
2018-07-03T13:28:13.793Z,150749.97
2018-07-03T13:30:44.952Z,150729.95
2018-07-03T13:33:16.180Z,150759.98
2018-07-03T13:35:47.279Z,150754.98
2018-07-03T13:38:18.435Z,150647.25
2018-07-03T13:40:49.571Z,150562.02
2018-07-03T13:43:20.658Z,150514.42
2018-07-03T13:45:51.625Z,150533.23
2018-07-03T13:48:22.904Z,150439.28
2018-07-03T13:50:53.744Z,150513.17
2018-07-03T13:53:24.997Z,150564.52
2018-07-03T13:55:56.498Z,150540.75
2018-07-03T13:58:28.013Z,150587.09
2018-07-03T14:00:59.154Z,150652.25
2018-07-03T14:03:30.409Z,150702.36
2018-07-03T14:06:01.535Z,150647.25
2018-07-03T14:08:32.673Z,150608.36
2018-07-03T14:11:03.822Z,150577.08
2018-07-03T14:13:35.134Z,150569.53
2018-07-03T14:16:06.237Z,150547.00
2018-07-03T14:18:37.218Z,150577.08
2018-07-03T14:21:08.639Z,150582.08
2018-07-03T14:23:39.872Z,150597.09
2018-07-03T14:26:10.957Z,150628.42
2018-07-03T14:28:42.134Z,150628.42
2018-07-03T14:31:13.338Z,150521.94
2018-07-03T14:33:44.412Z,150515.69
2018-07-03T14:36:15.668Z,150593.34
2018-07-03T14:38:46.889Z,150579.58
2018-07-03T14:41:18.103Z,150648.50
2018-07-03T14:43:49.196Z,150688.59
2018-07-03T14:46:20.213Z,150662.27
2018-07-03T14:48:51.345Z,150679.83
2018-07-03T14:51:22.373Z,150661.02
2018-07-03T14:53:53.571Z,150708.63
2018-07-03T14:56:24.786Z,150480.61
2018-07-03T14:58:57.442Z,150451.78
2018-07-03T15:01:28.515Z,150506.92
2018-07-03T15:03:59.717Z,150557.02
2018-07-03T15:06:30.622Z,150524.44
2018-07-03T15:09:02.104Z,150509.42
2018-07-03T15:11:33.235Z,150427.97
2018-07-03T15:14:04.503Z,150525.69
2018-07-03T15:16:35.613Z,150619.63
2018-07-03T15:19:11.744Z,150531.98
2018-07-03T15:21:44.102Z,150612.11
2018-07-03T15:24:15.118Z,150594.59
2018-07-03T15:26:46.108Z,150524.44
2018-07-03T15:29:17.353Z,150494.41
2018-07-03T15:31:48.470Z,150439.28
2018-07-03T15:34:19.878Z,150448.03
2018-07-03T15:36:51.080Z,150488.11
2018-07-03T15:39:22.249Z,150439.28
2018-07-03T15:41:53.775Z,150459.28
2018-07-03T15:44:35.557Z,150433.03
2018-07-03T15:47:07.548Z,150429.22
2018-07-03T15:49:38.729Z,150352.89
2018-07-03T15:52:10.093Z,150300.27
2018-07-03T15:54:41.381Z,150352.89
2018-07-03T15:57:12.689Z,150337.88
2018-07-03T15:59:44.013Z,150299.03
2018-07-03T16:02:15.087Z,150242.72
2018-07-03T16:05:00.488Z,150240.16
2018-07-03T16:07:45.900Z,150200.16
2018-07-03T16:10:16.989Z,150202.66
2018-07-03T16:12:48.109Z,150175.06
2018-07-03T16:15:19.380Z,150137.53
2018-07-03T16:17:51.989Z,150098.78
2018-07-03T16:20:27.861Z,150113.78
2018-07-03T16:22:58.862Z,150091.23
2018-07-03T16:25:30.133Z,150118.78
2018-07-03T16:28:01.246Z,150125.03
2018-07-03T16:30:32.407Z,150112.53
2018-07-03T16:33:04.188Z,150055.00
2018-07-03T16:35:36.160Z,150019.97
2018-07-03T16:38:07.441Z,149998.62
2018-07-03T16:40:39.771Z,150021.22
2018-07-03T16:43:11.031Z,150011.22
2018-07-03T16:45:43.161Z,150003.63
2018-07-03T16:48:15.221Z,149991.12
2018-07-03T16:50:46.473Z,149989.87
2018-07-03T16:53:17.786Z,149979.89
2018-07-03T16:55:49.053Z,149963.66
2018-07-03T16:58:20.061Z,149946.11
2018-07-03T17:00:51.334Z,149911.13
2018-07-03T17:03:22.510Z,149874.87
2018-07-03T17:05:53.710Z,149851.09
2018-07-03T17:08:25.218Z,149813.53
2018-07-03T17:10:56.459Z,149802.28
2018-07-03T17:13:28.850Z,149771.08
2018-07-03T17:16:00.244Z,149693.58
2018-07-03T17:18:32.497Z,149719.84
2018-07-03T17:21:03.812Z,149704.81
2018-07-03T17:23:34.813Z,149709.80
2018-07-03T17:26:06.245Z,149723.58
2018-07-03T17:28:38.254Z,149736.06
2018-07-03T17:31:09.388Z,149733.56
2018-07-03T17:33:40.874Z,149711.05
2018-07-03T17:36:12.762Z,149719.84
2018-07-03T17:38:43.923Z,149718.53
2018-07-03T17:41:25.665Z,149723.58
2018-07-03T17:44:09.439Z,149691.08
2018-07-03T17:46:41.321Z,149651.03
2018-07-03T17:49:12.517Z,149599.81
2018-07-03T17:51:43.812Z,149553.59
2018-07-03T17:54:15.068Z,149548.59
2018-07-03T17:56:46.432Z,149524.84
2018-07-03T17:59:17.565Z,149523.59
2018-07-03T18:01:49.166Z,149479.83
2018-07-03T18:04:20.611Z,149478.58
2018-07-03T18:06:52.712Z,149516.11
2018-07-03T18:09:23.812Z,149512.38
2018-07-03T18:11:56.219Z,149518.61
2018-07-03T18:14:27.448Z,149508.63
2018-07-03T18:16:59.788Z,149513.62
2018-07-03T18:19:47.784Z,149528.59
2018-07-03T18:22:20.357Z,149523.59
2018-07-03T18:24:51.761Z,149516.11
2018-07-03T18:27:24.241Z,149489.86
2018-07-03T18:29:55.926Z,149473.59
2018-07-03T18:32:27.618Z,149477.34
2018-07-03T18:35:01.059Z,149488.61
2018-07-03T18:37:32.241Z,149429.88
2018-07-03T18:40:03.761Z,149398.69
2018-07-03T18:42:34.932Z,149408.67
2018-07-03T18:45:06.755Z,149418.66
2018-07-03T18:47:39.191Z,149428.64
2018-07-03T18:50:10.321Z,149417.41
2018-07-03T18:52:41.738Z,149411.17
2018-07-03T18:55:12.996Z,149406.19
2018-07-03T18:57:44.232Z,149398.69
2018-07-03T19:00:15.622Z,149394.95
2018-07-03T19:02:49.444Z,149381.19
2018-07-03T19:05:22.481Z,149381.19
2018-07-03T19:07:57.198Z,149367.47
2018-07-03T19:10:30.075Z,149382.44
2018-07-03T19:13:01.392Z,149368.72
2018-07-03T19:15:32.811Z,149372.45
2018-07-03T19:18:05.249Z,149378.69
2018-07-03T19:20:36.348Z,149371.20
2018-07-03T19:23:07.507Z,149387.42
2018-07-03T19:25:39.688Z,149383.69
2018-07-03T19:28:11.861Z,149361.23
2018-07-03T19:30:43.994Z,149336.23
2018-07-03T19:33:15.872Z,149341.28
2018-07-03T19:35:47.097Z,149317.53
2018-07-03T19:38:18.306Z,149313.78
2018-07-03T19:40:49.447Z,149318.78
2018-07-03T19:43:25.538Z,149321.28
2018-07-03T19:45:57.412Z,149321.28
2018-07-03T19:48:28.547Z,149326.27
2018-07-03T19:50:59.809Z,149336.23
2018-07-03T19:53:32.068Z,149339.98
2018-07-03T19:56:03.295Z,149335.00
2018-07-03T19:58:34.613Z,149320.03
2018-07-03T20:01:06.053Z,149339.98
2018-07-03T20:03:37.256Z,149346.27
2018-07-03T20:06:08.512Z,149366.22
2018-07-03T20:08:40.870Z,149353.75
2018-07-03T20:11:12.345Z,149343.77
2018-07-03T20:13:44.110Z,149345.02
2018-07-03T20:16:16.529Z,149338.73
2018-07-03T20:18:48.139Z,149363.72
2018-07-03T20:21:20.978Z,149374.95
2018-07-03T20:23:53.007Z,149368.72
2018-07-03T20:26:25.145Z,149355.00
2018-07-03T20:28:56.859Z,149339.98
2018-07-03T20:31:29.527Z,149381.19
2018-07-03T20:34:01.482Z,149398.69
2018-07-03T20:36:33.277Z,149396.20
2018-07-03T20:39:06.267Z,149394.95
2018-07-03T20:41:38.343Z,149391.22
2018-07-03T20:44:09.789Z,149408.67
2018-07-03T20:46:41.233Z,149406.19
2018-07-03T20:49:12.507Z,149429.88
2018-07-03T20:51:43.806Z,149438.66
2018-07-03T20:54:15.265Z,149384.94
2018-07-03T20:56:46.525Z,149358.73
2018-07-03T20:59:18.023Z,149352.50
2018-07-03T21:01:49.670Z,149366.22
2018-07-03T21:04:20.891Z,149353.75
2018-07-03T21:06:51.967Z,149352.50
2018-07-03T21:09:23.230Z,149342.53
2018-07-03T21:11:54.579Z,149337.48
2018-07-03T21:14:25.896Z,149318.78
2018-07-03T21:16:57.313Z,149307.50
2018-07-03T21:19:29.428Z,149306.27
2018-07-03T21:22:02.129Z,149292.50
2018-07-03T21:24:33.673Z,149285.02
2018-07-03T21:27:04.845Z,149296.28
2018-07-03T21:29:41.316Z,149291.25
2018-07-03T21:32:14.795Z,149297.53
2018-07-03T21:34:47.499Z,149295.03
2018-07-03T21:37:19.228Z,149252.59
2018-07-03T21:39:50.899Z,149250.09
2018-07-03T21:42:22.510Z,149246.36
2018-07-03T21:44:53.832Z,149271.30
2018-07-03T21:47:25.372Z,149265.06
2018-07-03T21:49:57.150Z,149261.33
2018-07-03T21:52:28.548Z,149266.31
2018-07-03T21:54:59.808Z,149258.83
2018-07-03T21:57:31.280Z,149248.84
2018-07-03T22:00:03.631Z,149255.09
2018-07-03T22:02:36.018Z,149258.83
2018-07-03T22:05:07.880Z,149256.34
2018-07-03T22:07:39.435Z,149262.56
2018-07-03T22:10:11.467Z,149293.80
2018-07-03T22:12:42.701Z,149248.84
2018-07-03T22:15:13.823Z,149236.34
2018-07-03T22:17:44.990Z,149236.34
2018-07-03T22:20:16.402Z,149256.34
2018-07-03T22:22:47.552Z,149260.08
2018-07-03T22:25:18.714Z,149260.08
2018-07-03T22:27:49.830Z,149251.34
2018-07-03T22:30:21.007Z,149256.34
2018-07-03T22:32:52.491Z,149246.36
2018-07-03T22:35:23.831Z,149241.33
2018-07-03T22:37:55.093Z,149241.33
2018-07-03T22:40:26.496Z,149255.09
2018-07-03T22:42:58.027Z,149213.89
2018-07-03T22:45:29.602Z,149240.08
2018-07-03T22:48:00.725Z,149233.84
2018-07-03T22:50:32.040Z,149226.36
2018-07-03T22:53:03.069Z,149226.36
2018-07-03T22:55:34.569Z,149230.11
2018-07-03T22:58:05.833Z,149240.08
2018-07-03T23:00:40.491Z,149241.33
2018-07-03T23:03:12.779Z,149247.61
2018-07-03T23:05:43.983Z,149245.06
2018-07-03T23:08:15.488Z,149243.81
2018-07-03T23:10:46.804Z,149246.36
2018-07-03T23:13:18.065Z,149231.34
2018-07-03T23:15:49.103Z,149236.34
2018-07-03T23:18:20.683Z,149246.36
2018-07-03T23:20:51.977Z,149246.36
2018-07-03T23:23:22.969Z,149252.59
2018-07-03T23:25:54.092Z,149233.84
2018-07-03T23:28:25.512Z,149240.08
2018-07-03T23:30:56.396Z,149268.81
2018-07-03T23:33:27.802Z,149253.84
2018-07-03T23:35:58.979Z,149266.31
2018-07-03T23:38:31.918Z,149278.78
2018-07-03T23:41:03.657Z,149275.05
2018-07-03T23:43:34.639Z,149272.55
2018-07-03T23:46:03.845Z,149285.02
2018-07-03T23:48:46.244Z,149273.80
2018-07-03T23:51:33.319Z,149318.78
2018-07-03T23:54:21.003Z,149333.75
2018-07-03T23:57:08.665Z,149337.48
2018-07-03T23:59:56.267Z,149322.53
